createdAt,value
2018-01-07T00:01:40.908Z,99925
2018-01-07T00:06:43.292Z,99941
2018-01-07T00:11:45.691Z,99933
2018-01-07T00:16:47.915Z,99934
2018-01-07T00:21:49.404Z,99937
2018-01-07T00:26:50.994Z,99925
2018-01-07T00:31:53.315Z,99948
2018-01-07T00:36:54.879Z,99941
2018-01-07T00:41:56.372Z,99950
2018-01-07T00:46:57.866Z,99961
2018-01-07T00:51:59.399Z,99964
2018-01-07T00:57:00.994Z,99964
2018-01-07T01:02:02.605Z,99983
2018-01-07T01:07:04.982Z,99990
2018-01-07T01:12:07.210Z,99982
2018-01-07T01:17:08.765Z,99992
2018-01-07T01:22:10.250Z,100007
2018-01-07T01:27:12.722Z,100024
2018-01-07T01:32:14.278Z,100031
2018-01-07T01:37:15.832Z,100034
2018-01-07T01:42:18.326Z,100032
2018-01-07T01:47:20.625Z,100042
2018-01-07T01:52:22.330Z,100060
2018-01-07T01:57:23.878Z,100069
2018-01-07T02:02:25.404Z,100081
2018-01-07T02:07:27.072Z,100100
2018-01-07T02:12:28.635Z,100093
2018-01-07T02:17:30.144Z,100085
2018-01-07T02:22:31.792Z,100096
2018-01-07T02:27:34.050Z,100105
2018-01-07T02:32:35.624Z,100108
2018-01-07T02:37:37.129Z,100103
2018-01-07T02:42:38.623Z,100119
2018-01-07T02:47:40.259Z,100105
2018-01-07T02:52:41.793Z,100119
2018-01-07T02:57:43.260Z,100142
2018-01-07T03:02:45.712Z,100139
2018-01-07T03:07:48.072Z,100156
2018-01-07T03:12:49.574Z,100151
2018-01-07T03:17:51.100Z,100148
2018-01-07T03:22:53.372Z,100147
2018-01-07T03:27:55.638Z,100165
2018-01-07T03:32:57.184Z,100171
2018-01-07T03:37:58.753Z,100183
2018-01-07T03:43:00.488Z,100194
2018-01-07T03:48:02.026Z,100202
2018-01-07T03:53:03.551Z,100194
2018-01-07T03:58:05.884Z,100210
2018-01-07T04:03:08.210Z,100206
2018-01-07T04:08:09.758Z,100225
2018-01-07T04:13:12.052Z,100224
2018-01-07T04:18:14.362Z,100230
2018-01-07T04:23:15.873Z,100234
2018-01-07T04:28:17.385Z,100247
2018-01-07T04:33:19.059Z,100251
2018-01-07T04:38:20.578Z,100254
2018-01-07T04:43:22.150Z,100256
2018-01-07T04:48:23.698Z,100248
2018-01-07T04:53:25.277Z,100247
2018-01-07T04:58:26.865Z,100244
2018-01-07T05:03:29.124Z,100265
2018-01-07T05:08:30.706Z,100276
2018-01-07T05:13:32.236Z,100265
2018-01-07T05:18:33.817Z,100264
2018-01-07T05:23:35.442Z,100282
2018-01-07T05:28:37.010Z,100285
2018-01-07T05:33:38.536Z,100290
2018-01-07T05:38:40.067Z,100297
2018-01-07T05:43:41.603Z,100309
2018-01-07T05:48:43.989Z,100317
2018-01-07T05:53:46.369Z,100335
2018-01-07T05:58:48.698Z,100336
2018-01-07T06:03:50.287Z,100344
2018-01-07T06:08:51.793Z,100360
2018-01-07T06:13:54.044Z,100368
2018-01-07T06:18:55.679Z,100368
2018-01-07T06:23:57.216Z,100377
2018-01-07T06:28:59.481Z,100374
2018-01-07T06:34:00.989Z,100389
2018-01-07T06:39:02.544Z,100398
2018-01-07T06:44:04.943Z,100408
2018-01-07T06:49:06.476Z,100398
2018-01-07T06:54:07.981Z,100418
2018-01-07T06:59:09.541Z,100418
2018-01-07T07:04:11.108Z,100419
2018-01-07T07:09:12.663Z,100446
2018-01-07T07:14:14.924Z,100443
2018-01-07T07:19:16.998Z,100453
2018-01-07T07:24:18.517Z,100466
2018-01-07T07:29:20.139Z,100477
2018-01-07T07:34:21.671Z,100494
2018-01-07T07:39:23.243Z,100495
2018-01-07T07:44:24.764Z,100506
2018-01-07T07:49:27.890Z,100519
2018-01-07T07:54:29.496Z,100525
2018-01-07T07:59:30.989Z,100535
2018-01-07T08:04:32.578Z,100549
2018-01-07T08:09:34.855Z,100546
2018-01-07T08:14:36.368Z,100569
2018-01-07T08:19:37.893Z,100557
2018-01-07T08:24:40.214Z,100568
2018-01-07T08:29:41.828Z,100580
2018-01-07T08:34:43.470Z,100587
2018-01-07T08:39:45.045Z,100605
2018-01-07T08:44:46.583Z,100604
2018-01-07T08:49:48.112Z,100613
2018-01-07T08:54:49.643Z,100621
2018-01-07T08:59:51.408Z,100626
2018-01-07T09:04:52.976Z,100605
2018-01-07T09:09:54.498Z,100628
2018-01-07T09:14:56.799Z,100640
2018-01-07T09:19:58.338Z,100640
2018-01-07T09:24:59.885Z,100653
2018-01-07T09:30:01.473Z,100663
2018-01-07T09:35:03.024Z,100681
2018-01-07T09:40:04.629Z,100682
2018-01-07T09:45:06.933Z,100701
2018-01-07T09:50:08.485Z,100712
2018-01-07T09:55:10.008Z,100716
2018-01-07T10:00:11.558Z,100717
2018-01-07T10:05:13.301Z,100707
2018-01-07T10:10:16.246Z,100708
2018-01-07T10:15:17.785Z,100727
2018-01-07T10:20:19.314Z,100722
2018-01-07T10:25:20.883Z,100724
2018-01-07T10:30:22.480Z,100734
2018-01-07T10:35:23.989Z,100757
2018-01-07T10:40:25.581Z,100740
2018-01-07T10:45:27.113Z,100748
2018-01-07T10:50:28.665Z,100747
2018-01-07T10:55:30.299Z,100745
2018-01-07T11:00:38.776Z,100730
2018-01-07T11:05:40.420Z,100732
2018-01-07T11:10:42.021Z,100746
2018-01-07T11:15:43.517Z,100737
2018-01-07T11:20:45.223Z,100730
2018-01-07T11:25:47.533Z,100752
2018-01-07T11:30:49.241Z,100762
2018-01-07T11:35:50.800Z,100762
2018-01-07T11:40:52.362Z,100770
2018-01-07T11:45:53.883Z,100753
2018-01-07T11:50:56.232Z,100755
2018-01-07T11:55:57.778Z,100763
2018-01-07T12:00:59.527Z,100760
2018-01-07T12:06:01.082Z,100758
2018-01-07T12:11:02.657Z,100760
2018-01-07T12:16:04.182Z,100751
2018-01-07T12:21:05.725Z,100743
2018-01-07T12:26:07.339Z,100747
2018-01-07T12:31:08.844Z,100734
2018-01-07T12:36:10.388Z,100729
2018-01-07T12:41:12.062Z,100739
2018-01-07T12:46:14.382Z,100748
2018-01-07T12:51:16.108Z,100733
2018-01-07T12:56:18.417Z,100723
2018-01-07T13:01:20.031Z,100734
2018-01-07T13:06:21.556Z,100698
2018-01-07T13:11:23.178Z,100701
2018-01-07T13:16:24.735Z,100694
2018-01-07T13:21:26.364Z,100702
2018-01-07T13:26:27.953Z,100684
2018-01-07T13:31:30.388Z,100689
2018-01-07T13:36:32.630Z,100699
2018-01-07T13:41:34.196Z,100694
2018-01-07T13:46:35.728Z,100711
2018-01-07T13:51:38.006Z,100703
2018-01-07T13:56:40.254Z,100713
2018-01-07T14:01:41.780Z,100708
2018-01-07T14:06:43.347Z,100712
2018-01-07T14:11:44.837Z,100719
2018-01-07T14:16:46.364Z,100722
2018-01-07T14:21:48.689Z,100717
2018-01-07T14:26:50.304Z,100744
2018-01-07T14:31:52.561Z,100756
2018-01-07T14:36:54.088Z,100762
2018-01-07T14:41:55.789Z,100754
2018-01-07T14:46:57.352Z,100756
2018-01-07T14:51:58.944Z,100765
2018-01-07T14:57:00.612Z,100765
2018-01-07T15:02:02.148Z,100772
2018-01-07T15:07:03.845Z,100781
2018-01-07T15:12:05.452Z,100785
2018-01-07T15:17:07.724Z,100778
2018-01-07T15:22:09.350Z,100779
2018-01-07T15:27:10.867Z,100777
2018-01-07T15:32:13.169Z,100802
2018-01-07T15:37:14.698Z,100818
2018-01-07T15:42:16.197Z,100823
2018-01-07T15:47:18.468Z,100829
2018-01-07T15:52:20.006Z,100819
2018-01-07T15:57:21.558Z,100805
2018-01-07T16:02:23.190Z,100818
2018-01-07T16:07:24.856Z,100825
2018-01-07T16:12:27.237Z,100815
2018-01-07T16:17:29.519Z,100830
2018-01-07T16:22:31.161Z,100843
2018-01-07T16:27:32.679Z,100848
2018-01-07T16:32:34.239Z,100858
2018-01-07T16:37:37.112Z,100847
2018-01-07T16:42:38.649Z,100849
2018-01-07T16:47:40.229Z,100843
2018-01-07T16:52:41.841Z,100847
2018-01-07T16:57:44.141Z,100857
2018-01-07T17:02:45.768Z,100854
2018-01-07T17:07:47.378Z,100871
2018-01-07T17:12:48.888Z,100861
2018-01-07T17:17:50.455Z,100868
2018-01-07T17:22:51.971Z,100883
2018-01-07T17:27:54.270Z,100899
2018-01-07T17:32:55.858Z,100896
2018-01-07T17:37:57.383Z,100893
2018-01-07T17:42:59.663Z,100899
2018-01-07T17:48:02.089Z,100903
2018-01-07T17:53:03.596Z,100905
2018-01-07T17:58:05.127Z,100910
2018-01-07T18:03:06.794Z,100917
2018-01-07T18:08:08.374Z,100921
2018-01-07T18:13:09.916Z,100927
2018-01-07T18:18:11.581Z,100929
2018-01-07T18:23:13.884Z,100934
2018-01-07T18:28:15.433Z,100945
2018-01-07T18:33:17.664Z,100939
2018-01-07T18:38:19.367Z,100940
2018-01-07T18:43:20.945Z,100937
2018-01-07T18:48:30.160Z,100943
2018-01-07T18:53:31.743Z,100941
2018-01-07T18:58:33.317Z,100946
2018-01-07T19:03:35.020Z,100952
2018-01-07T19:08:36.551Z,100953
2018-01-07T19:13:38.062Z,100950
2018-01-07T19:18:39.580Z,100965
2018-01-07T19:23:41.239Z,100966
2018-01-07T19:28:42.970Z,100963
2018-01-07T19:33:44.592Z,100958
2018-01-07T19:38:46.796Z,100960
2018-01-07T19:43:48.441Z,100962
2018-01-07T19:48:50.368Z,100965
2018-01-07T19:53:52.178Z,100977
2018-01-07T19:58:54.772Z,100967
2018-01-07T20:03:57.431Z,100959
2018-01-07T20:08:58.994Z,100970
2018-01-07T20:14:00.802Z,100971
2018-01-07T20:19:03.180Z,100980
2018-01-07T20:24:04.778Z,100980
2018-01-07T20:29:06.621Z,100982
2018-01-07T20:34:08.360Z,100980
2018-01-07T20:39:09.940Z,100978
2018-01-07T20:44:11.502Z,100985
2018-01-07T20:49:13.847Z,100985
2018-01-07T20:54:15.399Z,100986
2018-01-07T20:59:16.953Z,100981
2018-01-07T21:04:18.475Z,100982
2018-01-07T21:09:20.780Z,100968
2018-01-07T21:14:23.065Z,100965
2018-01-07T21:19:25.668Z,100985
2018-01-07T21:24:27.216Z,100986
2018-01-07T21:29:36.623Z,100985
2018-01-07T21:34:38.155Z,100985
2018-01-07T21:39:39.707Z,100981
2018-01-07T21:44:42.060Z,100989
2018-01-07T21:49:43.617Z,100995
2018-01-07T21:54:45.140Z,101001
2018-01-07T22:15:53.670Z,100990
2018-01-07T22:20:55.312Z,100979
2018-01-07T22:25:56.889Z,100962
2018-01-07T22:30:58.363Z,100951
2018-01-07T22:36:00.718Z,100973
2018-01-07T22:41:02.364Z,100956
2018-01-07T22:46:03.873Z,100958
2018-01-07T22:51:05.397Z,100970
2018-01-07T22:56:06.959Z,100956
2018-01-07T23:01:08.550Z,100940
2018-01-07T23:06:10.076Z,100941
2018-01-07T23:11:11.704Z,100923
2018-01-07T23:16:13.273Z,100948
2018-01-07T23:21:14.817Z,100946
2018-01-07T23:26:16.573Z,100938
2018-01-07T23:31:18.163Z,100934
2018-01-07T23:36:19.720Z,100942
2018-01-07T23:41:22.160Z,100943
2018-01-07T23:46:24.442Z,100935
2018-01-07T23:51:26.060Z,100931
2018-01-07T23:56:27.603Z,100952
